sensor_id;sensor_type;location;lat;lon;timestamp;temperature;humidity
7461;DHT22;6757;52.258;12.840;2022-07-29T00:01:38;13.70;96.70
7461;DHT22;6757;52.258;12.840;2022-07-29T00:04:05;13.60;97.00
7461;DHT22;6757;52.258;12.840;2022-07-29T00:06:31;13.60;97.40
7461;DHT22;6757;52.258;12.840;2022-07-29T00:08:58;13.60;97.80
7461;DHT22;6757;52.258;12.840;2022-07-29T00:11:25;13.50;98.10
7461;DHT22;6757;52.258;12.840;2022-07-29T00:13:52;13.50;98.50
7461;DHT22;6757;52.258;12.840;2022-07-29T00:16:20;13.50;98.90
7461;DHT22;6757;52.258;12.840;2022-07-29T00:18:48;13.40;99.30
7461;DHT22;6757;52.258;12.840;2022-07-29T00:21:15;13.40;99.80
7461;DHT22;6757;52.258;12.840;2022-07-29T00:23:42;13.40;99.90
7461;DHT22;6757;52.258;12.840;2022-07-29T00:26:09;13.30;99.90
7461;DHT22;6757;52.258;12.840;2022-07-29T00:28:36;13.40;99.90
7461;DHT22;6757;52.258;12.840;2022-07-29T00:31:03;13.30;99.90
7461;DHT22;6757;52.258;12.840;2022-07-29T00:33:31;13.30;99.90
7461;DHT22;6757;52.258;12.840;2022-07-29T00:35:58;13.20;99.90
7461;DHT22;6757;52.258;12.840;2022-07-29T00:38:24;13.20;99.90
7461;DHT22;6757;52.258;12.840;2022-07-29T00:40:50;13.20;99.90
7461;DHT22;6757;52.258;12.840;2022-07-29T00:43:17;13.20;99.90
7461;DHT22;6757;52.258;12.840;2022-07-29T00:45:44;13.10;99.90
7461;DHT22;6757;52.258;12.840;2022-07-29T00:48:11;13.10;99.90
7461;DHT22;6757;52.258;12.840;2022-07-29T00:50:40;13.10;99.90
7461;DHT22;6757;52.258;12.840;2022-07-29T00:53:07;13.00;99.90
7461;DHT22;6757;52.258;12.840;2022-07-29T00:55:35;13.00;99.90
7461;DHT22;6757;52.258;12.840;2022-07-29T00:58:03;13.00;99.90
7461;DHT22;6757;52.258;12.840;2022-07-29T01:00:30;12.90;99.90
7461;DHT22;6757;52.258;12.840;2022-07-29T01:02:57;12.90;99.90
7461;DHT22;6757;52.258;12.840;2022-07-29T01:05:26;12.90;99.90
7461;DHT22;6757;52.258;12.840;2022-07-29T01:07:57;12.90;99.90
7461;DHT22;6757;52.258;12.840;2022-07-29T01:10:26;12.80;99.90
7461;DHT22;6757;52.258;12.840;2022-07-29T01:12:54;12.80;99.90
7461;DHT22;6757;52.258;12.840;2022-07-29T01:15:23;12.80;99.90
7461;DHT22;6757;52.258;12.840;2022-07-29T01:17:58;12.70;99.90
7461;DHT22;6757;52.258;12.840;2022-07-29T01:20:42;12.70;99.90
7461;DHT22;6757;52.258;12.840;2022-07-29T01:23:59;12.70;99.90
7461;DHT22;6757;52.258;12.840;2022-07-29T01:26:45;12.60;99.90
7461;DHT22;6757;52.258;12.840;2022-07-29T01:29:21;12.60;99.90
7461;DHT22;6757;52.258;12.840;2022-07-29T01:31:56;12.60;99.90
7461;DHT22;6757;52.258;12.840;2022-07-29T01:34:29;12.60;99.90
7461;DHT22;6757;52.258;12.840;2022-07-29T01:37:05;12.60;99.90
7461;DHT22;6757;52.258;12.840;2022-07-29T01:39:36;12.70;99.90
7461;DHT22;6757;52.258;12.840;2022-07-29T01:42:09;12.60;99.90
7461;DHT22;6757;52.258;12.840;2022-07-29T01:44:45;12.70;99.90
7461;DHT22;6757;52.258;12.840;2022-07-29T01:47:20;12.70;99.90
7461;DHT22;6757;52.258;12.840;2022-07-29T01:49:50;12.60;99.90
7461;DHT22;6757;52.258;12.840;2022-07-29T01:52:21;12.70;99.90
7461;DHT22;6757;52.258;12.840;2022-07-29T01:54:55;12.70;99.90
7461;DHT22;6757;52.258;12.840;2022-07-29T01:57:27;11.80;99.90
7461;DHT22;6757;52.258;12.840;2022-07-29T01:59:57;12.80;99.90
7461;DHT22;6757;52.258;12.840;2022-07-29T02:02:26;12.80;99.90
7461;DHT22;6757;52.258;12.840;2022-07-29T02:04:56;12.90;99.90
7461;DHT22;6757;52.258;12.840;2022-07-29T02:07:26;12.90;99.90
7461;DHT22;6757;52.258;12.840;2022-07-29T02:09:56;13.00;99.90
7461;DHT22;6757;52.258;12.840;2022-07-29T02:12:25;13.00;99.90
7461;DHT22;6757;52.258;12.840;2022-07-29T02:14:53;13.10;99.90
7461;DHT22;6757;52.258;12.840;2022-07-29T02:17:27;13.10;99.90
7461;DHT22;6757;52.258;12.840;2022-07-29T02:19:57;13.20;99.90
7461;DHT22;6757;52.258;12.840;2022-07-29T02:22:29;13.20;99.90
7461;DHT22;6757;52.258;12.840;2022-07-29T02:24:57;13.30;99.90
7461;DHT22;6757;52.258;12.840;2022-07-29T02:27:26;13.30;99.90
7461;DHT22;6757;52.258;12.840;2022-07-29T02:29:53;13.40;99.90
7461;DHT22;6757;52.258;12.840;2022-07-29T02:32:24;13.40;99.90
7461;DHT22;6757;52.258;12.840;2022-07-29T02:34:53;13.40;99.90
7461;DHT22;6757;52.258;12.840;2022-07-29T02:37:21;13.40;99.90
7461;DHT22;6757;52.258;12.840;2022-07-29T02:39:48;13.50;99.90
7461;DHT22;6757;52.258;12.840;2022-07-29T02:42:19;13.50;99.90
7461;DHT22;6757;52.258;12.840;2022-07-29T02:44:47;13.60;99.90
7461;DHT22;6757;52.258;12.840;2022-07-29T02:47:19;13.60;99.90
7461;DHT22;6757;52.258;12.840;2022-07-29T02:49:52;13.50;99.90
7461;DHT22;6757;52.258;12.840;2022-07-29T02:52:24;13.50;99.90
7461;DHT22;6757;52.258;12.840;2022-07-29T02:54:55;13.50;99.90
7461;DHT22;6757;52.258;12.840;2022-07-29T02:57:31;13.60;99.90
7461;DHT22;6757;52.258;12.840;2022-07-29T03:00:02;13.60;99.90
7461;DHT22;6757;52.258;12.840;2022-07-29T03:02:38;13.60;99.90
7461;DHT22;6757;52.258;12.840;2022-07-29T03:05:10;13.60;99.90
7461;DHT22;6757;52.258;12.840;2022-07-29T03:07:46;13.60;99.90
7461;DHT22;6757;52.258;12.840;2022-07-29T03:10:15;13.60;99.90
7461;DHT22;6757;52.258;12.840;2022-07-29T03:12:42;13.60;99.90
7461;DHT22;6757;52.258;12.840;2022-07-29T03:15:09;13.60;99.90
7461;DHT22;6757;52.258;12.840;2022-07-29T03:17:39;13.60;99.90
7461;DHT22;6757;52.258;12.840;2022-07-29T03:20:07;13.50;99.90
7461;DHT22;6757;52.258;12.840;2022-07-29T03:22:39;13.60;99.90
7461;DHT22;6757;52.258;12.840;2022-07-29T03:25:09;13.50;99.90
7461;DHT22;6757;52.258;12.840;2022-07-29T03:27:37;13.50;99.90
7461;DHT22;6757;52.258;12.840;2022-07-29T03:30:04;13.50;99.90
7461;DHT22;6757;52.258;12.840;2022-07-29T03:32:32;13.50;99.90
7461;DHT22;6757;52.258;12.840;2022-07-29T03:35:01;13.60;99.90
7461;DHT22;6757;52.258;12.840;2022-07-29T03:37:28;13.60;99.90
7461;DHT22;6757;52.258;12.840;2022-07-29T03:39:57;13.60;99.90
7461;DHT22;6757;52.258;12.840;2022-07-29T03:42:26;13.60;99.90
7461;DHT22;6757;52.258;12.840;2022-07-29T03:44:55;13.60;99.90
7461;DHT22;6757;52.258;12.840;2022-07-29T03:47:29;13.60;99.90
7461;DHT22;6757;52.258;12.840;2022-07-29T03:50:02;13.60;99.90
7461;DHT22;6757;52.258;12.840;2022-07-29T03:52:32;13.70;99.90
7461;DHT22;6757;52.258;12.840;2022-07-29T03:54:59;13.70;99.90
7461;DHT22;6757;52.258;12.840;2022-07-29T03:57:28;13.70;99.90
7461;DHT22;6757;52.258;12.840;2022-07-29T03:59:57;13.80;99.90
7461;DHT22;6757;52.258;12.840;2022-07-29T04:02:24;13.70;99.90
7461;DHT22;6757;52.258;12.840;2022-07-29T04:04:52;13.80;99.90
7461;DHT22;6757;52.258;12.840;2022-07-29T04:07:20;13.90;99.90
7461;DHT22;6757;52.258;12.840;2022-07-29T04:09:47;13.90;99.90
7461;DHT22;6757;52.258;12.840;2022-07-29T04:12:14;13.90;99.90
7461;DHT22;6757;52.258;12.840;2022-07-29T04:14:40;14.00;99.90
7461;DHT22;6757;52.258;12.840;2022-07-29T04:17:07;14.00;99.90
7461;DHT22;6757;52.258;12.840;2022-07-29T04:19:34;14.00;99.90
7461;DHT22;6757;52.258;12.840;2022-07-29T04:22:01;14.00;99.90
7461;DHT22;6757;52.258;12.840;2022-07-29T04:24:30;14.10;99.90
7461;DHT22;6757;52.258;12.840;2022-07-29T04:26:56;14.20;99.90
7461;DHT22;6757;52.258;12.840;2022-07-29T04:29:23;14.20;99.90
7461;DHT22;6757;52.258;12.840;2022-07-29T04:31:50;14.20;99.90
7461;DHT22;6757;52.258;12.840;2022-07-29T04:34:17;14.20;99.90
7461;DHT22;6757;52.258;12.840;2022-07-29T04:36:44;14.30;99.90
7461;DHT22;6757;52.258;12.840;2022-07-29T04:39:11;14.30;99.90
7461;DHT22;6757;52.258;12.840;2022-07-29T04:41:39;14.40;99.90
7461;DHT22;6757;52.258;12.840;2022-07-29T04:44:06;14.40;99.90
7461;DHT22;6757;52.258;12.840;2022-07-29T04:46:34;14.40;99.90
7461;DHT22;6757;52.258;12.840;2022-07-29T04:49:02;14.50;99.90
7461;DHT22;6757;52.258;12.840;2022-07-29T04:51:29;14.50;99.90
7461;DHT22;6757;52.258;12.840;2022-07-29T04:53:56;14.50;99.90
7461;DHT22;6757;52.258;12.840;2022-07-29T04:56:23;14.60;99.90
7461;DHT22;6757;52.258;12.840;2022-07-29T04:58:51;14.60;99.90
7461;DHT22;6757;52.258;12.840;2022-07-29T05:01:18;14.70;99.90
7461;DHT22;6757;52.258;12.840;2022-07-29T05:03:46;14.70;99.90
7461;DHT22;6757;52.258;12.840;2022-07-29T05:06:12;14.80;99.90
7461;DHT22;6757;52.258;12.840;2022-07-29T05:08:39;14.80;99.90
7461;DHT22;6757;52.258;12.840;2022-07-29T05:11:06;14.90;99.90
7461;DHT22;6757;52.258;12.840;2022-07-29T05:13:33;14.90;99.90
7461;DHT22;6757;52.258;12.840;2022-07-29T05:16:01;15.00;99.90
7461;DHT22;6757;52.258;12.840;2022-07-29T05:18:28;15.00;99.90
7461;DHT22;6757;52.258;12.840;2022-07-29T05:20:55;16.00;99.90
7461;DHT22;6757;52.258;12.840;2022-07-29T05:23:22;15.10;99.90
7461;DHT22;6757;52.258;12.840;2022-07-29T05:25:49;15.10;99.90
7461;DHT22;6757;52.258;12.840;2022-07-29T05:28:16;15.20;99.90
7461;DHT22;6757;52.258;12.840;2022-07-29T05:30:43;15.20;99.90
7461;DHT22;6757;52.258;12.840;2022-07-29T05:33:12;15.20;99.90
7461;DHT22;6757;52.258;12.840;2022-07-29T05:35:38;15.20;99.90
7461;DHT22;6757;52.258;12.840;2022-07-29T05:38:05;15.20;99.90
7461;DHT22;6757;52.258;12.840;2022-07-29T05:40:32;15.30;99.90
7461;DHT22;6757;52.258;12.840;2022-07-29T05:42:59;15.40;99.90
7461;DHT22;6757;52.258;12.840;2022-07-29T05:45:26;15.40;99.90
7461;DHT22;6757;52.258;12.840;2022-07-29T05:47:53;15.50;99.90
7461;DHT22;6757;52.258;12.840;2022-07-29T05:50:21;15.50;99.90
7461;DHT22;6757;52.258;12.840;2022-07-29T05:52:48;15.60;99.90
7461;DHT22;6757;52.258;12.840;2022-07-29T05:55:15;15.60;99.90
7461;DHT22;6757;52.258;12.840;2022-07-29T05:57:42;15.70;99.90
7461;DHT22;6757;52.258;12.840;2022-07-29T06:00:11;15.60;99.90
7461;DHT22;6757;52.258;12.840;2022-07-29T06:02:38;15.70;99.90
7461;DHT22;6757;52.258;12.840;2022-07-29T06:05:06;15.80;99.90
7461;DHT22;6757;52.258;12.840;2022-07-29T06:07:35;15.90;99.90
7461;DHT22;6757;52.258;12.840;2022-07-29T06:10:03;15.90;99.90
7461;DHT22;6757;52.258;12.840;2022-07-29T06:12:30;16.00;99.90
7461;DHT22;6757;52.258;12.840;2022-07-29T06:14:57;16.10;99.90
7461;DHT22;6757;52.258;12.840;2022-07-29T06:17:24;16.30;99.90
7461;DHT22;6757;52.258;12.840;2022-07-29T06:19:51;16.40;99.90
7461;DHT22;6757;52.258;12.840;2022-07-29T06:22:18;16.50;99.90
7461;DHT22;6757;52.258;12.840;2022-07-29T06:24:46;16.50;99.90
7461;DHT22;6757;52.258;12.840;2022-07-29T06:27:13;16.60;99.90
7461;DHT22;6757;52.258;12.840;2022-07-29T06:29:40;16.70;99.90
7461;DHT22;6757;52.258;12.840;2022-07-29T06:32:07;16.70;99.90
7461;DHT22;6757;52.258;12.840;2022-07-29T06:34:34;16.80;99.90
7461;DHT22;6757;52.258;12.840;2022-07-29T06:37:05;16.90;99.90
7461;DHT22;6757;52.258;12.840;2022-07-29T06:39:33;16.90;99.90
7461;DHT22;6757;52.258;12.840;2022-07-29T06:42:03;16.90;99.90
7461;DHT22;6757;52.258;12.840;2022-07-29T06:44:31;17.00;99.90
7461;DHT22;6757;52.258;12.840;2022-07-29T06:46:59;17.00;99.90
7461;DHT22;6757;52.258;12.840;2022-07-29T06:49:26;17.00;99.90
7461;DHT22;6757;52.258;12.840;2022-07-29T06:51:53;17.00;99.90
7461;DHT22;6757;52.258;12.840;2022-07-29T06:54:20;17.00;99.90
7461;DHT22;6757;52.258;12.840;2022-07-29T06:56:48;17.00;99.90
7461;DHT22;6757;52.258;12.840;2022-07-29T06:59:16;17.00;99.90
7461;DHT22;6757;52.258;12.840;2022-07-29T07:01:43;17.00;99.90
7461;DHT22;6757;52.258;12.840;2022-07-29T07:04:10;17.00;99.90
7461;DHT22;6757;52.258;12.840;2022-07-29T07:06:38;17.00;99.90
7461;DHT22;6757;52.258;12.840;2022-07-29T07:09:06;17.00;99.90
7461;DHT22;6757;52.258;12.840;2022-07-29T07:11:33;17.10;99.90
7461;DHT22;6757;52.258;12.840;2022-07-29T07:14:00;17.20;99.90
7461;DHT22;6757;52.258;12.840;2022-07-29T07:16:28;17.30;99.90
7461;DHT22;6757;52.258;12.840;2022-07-29T07:18:55;17.40;99.90
7461;DHT22;6757;52.258;12.840;2022-07-29T07:21:22;17.50;99.90
7461;DHT22;6757;52.258;12.840;2022-07-29T07:23:49;17.70;99.90
7461;DHT22;6757;52.258;12.840;2022-07-29T07:26:15;17.80;99.90
7461;DHT22;6757;52.258;12.840;2022-07-29T07:28:42;17.90;99.90
7461;DHT22;6757;52.258;12.840;2022-07-29T07:31:09;18.10;99.90
7461;DHT22;6757;52.258;12.840;2022-07-29T07:33:38;18.20;99.90
7461;DHT22;6757;52.258;12.840;2022-07-29T07:36:05;18.40;99.90
7461;DHT22;6757;52.258;12.840;2022-07-29T07:38:31;18.50;99.90
7461;DHT22;6757;52.258;12.840;2022-07-29T07:40:58;18.70;99.90
7461;DHT22;6757;52.258;12.840;2022-07-29T07:43:25;18.90;99.90
7461;DHT22;6757;52.258;12.840;2022-07-29T07:45:52;19.10;99.90
7461;DHT22;6757;52.258;12.840;2022-07-29T07:48:19;19.20;99.90
7461;DHT22;6757;52.258;12.840;2022-07-29T07:50:48;19.40;99.90
7461;DHT22;6757;52.258;12.840;2022-07-29T07:53:16;19.50;99.90
7461;DHT22;6757;52.258;12.840;2022-07-29T07:55:43;19.60;99.90
7461;DHT22;6757;52.258;12.840;2022-07-29T07:58:10;19.80;99.90
7461;DHT22;6757;52.258;12.840;2022-07-29T08:00:37;19.90;99.90
7461;DHT22;6757;52.258;12.840;2022-07-29T08:03:04;20.00;99.90
7461;DHT22;6757;52.258;12.840;2022-07-29T08:05:31;20.20;99.90
7461;DHT22;6757;52.258;12.840;2022-07-29T08:07:59;20.30;99.90
7461;DHT22;6757;52.258;12.840;2022-07-29T08:10:26;20.50;99.90
7461;DHT22;6757;52.258;12.840;2022-07-29T08:13:13;20.70;99.90
7461;DHT22;6757;52.258;12.840;2022-07-29T08:15:40;20.90;99.90
7461;DHT22;6757;52.258;12.840;2022-07-29T08:18:08;21.10;99.90
7461;DHT22;6757;52.258;12.840;2022-07-29T08:20:35;21.30;99.90
7461;DHT22;6757;52.258;12.840;2022-07-29T08:23:06;21.50;99.90
7461;DHT22;6757;52.258;12.840;2022-07-29T08:25:36;21.70;99.90
7461;DHT22;6757;52.258;12.840;2022-07-29T08:28:03;21.80;99.80
7461;DHT22;6757;52.258;12.840;2022-07-29T08:30:30;22.00;99.20
7461;DHT22;6757;52.258;12.840;2022-07-29T08:32:58;22.00;98.70
7461;DHT22;6757;52.258;12.840;2022-07-29T08:35:25;22.10;98.10
7461;DHT22;6757;52.258;12.840;2022-07-29T08:37:52;22.20;97.60
7461;DHT22;6757;52.258;12.840;2022-07-29T08:40:21;22.30;97.10
7461;DHT22;6757;52.258;12.840;2022-07-29T08:42:49;22.30;96.60
7461;DHT22;6757;52.258;12.840;2022-07-29T08:45:16;22.40;96.20
7461;DHT22;6757;52.258;12.840;2022-07-29T08:47:44;22.50;95.80
7461;DHT22;6757;52.258;12.840;2022-07-29T08:50:11;22.50;95.40
7461;DHT22;6757;52.258;12.840;2022-07-29T08:52:40;22.50;95.00
7461;DHT22;6757;52.258;12.840;2022-07-29T08:55:08;22.50;94.70
7461;DHT22;6757;52.258;12.840;2022-07-29T08:57:39;22.50;94.30
7461;DHT22;6757;52.258;12.840;2022-07-29T09:00:07;22.50;93.80
7461;DHT22;6757;52.258;12.840;2022-07-29T09:02:39;22.50;93.50
7461;DHT22;6757;52.258;12.840;2022-07-29T09:05:07;22.50;93.20
7461;DHT22;6757;52.258;12.840;2022-07-29T09:07:34;22.50;93.00
7461;DHT22;6757;52.258;12.840;2022-07-29T09:10:02;22.60;92.80
7461;DHT22;6757;52.258;12.840;2022-07-29T09:12:31;22.60;92.50
7461;DHT22;6757;52.258;12.840;2022-07-29T09:14:59;22.70;92.30
7461;DHT22;6757;52.258;12.840;2022-07-29T09:17:42;22.80;92.00
7461;DHT22;6757;52.258;12.840;2022-07-29T09:20:11;22.90;91.70
7461;DHT22;6757;52.258;12.840;2022-07-29T09:22:39;23.00;91.40
7461;DHT22;6757;52.258;12.840;2022-07-29T09:25:06;23.10;91.00
7461;DHT22;6757;52.258;12.840;2022-07-29T09:27:33;23.20;90.70
7461;DHT22;6757;52.258;12.840;2022-07-29T09:30:04;23.20;90.40
7461;DHT22;6757;52.258;12.840;2022-07-29T09:32:32;23.30;90.20
7461;DHT22;6757;52.258;12.840;2022-07-29T09:35:19;23.30;90.00
7461;DHT22;6757;52.258;12.840;2022-07-29T09:37:47;23.40;89.50
7461;DHT22;6757;52.258;12.840;2022-07-29T09:40:16;23.40;88.80
7461;DHT22;6757;52.258;12.840;2022-07-29T09:42:44;23.40;88.30
7461;DHT22;6757;52.258;12.840;2022-07-29T09:45:25;23.40;87.90
7461;DHT22;6757;52.258;12.840;2022-07-29T09:47:54;23.40;87.30
7461;DHT22;6757;52.258;12.840;2022-07-29T09:50:35;23.50;86.80
7461;DHT22;6757;52.258;12.840;2022-07-29T09:53:03;23.50;86.10
7461;DHT22;6757;52.258;12.840;2022-07-29T09:55:30;23.60;85.60
7461;DHT22;6757;52.258;12.840;2022-07-29T09:58:14;23.60;85.10
7461;DHT22;6757;52.258;12.840;2022-07-29T10:00:45;23.70;84.60
7461;DHT22;6757;52.258;12.840;2022-07-29T10:03:12;23.80;84.20
7461;DHT22;6757;52.258;12.840;2022-07-29T10:05:40;23.80;83.60
7461;DHT22;6757;52.258;12.840;2022-07-29T10:08:08;23.90;83.00
7461;DHT22;6757;52.258;12.840;2022-07-29T10:10:37;24.00;82.30
7461;DHT22;6757;52.258;12.840;2022-07-29T10:13:06;24.00;81.60
7461;DHT22;6757;52.258;12.840;2022-07-29T10:15:36;24.00;81.10
7461;DHT22;6757;52.258;12.840;2022-07-29T10:18:08;24.10;80.60
7461;DHT22;6757;52.258;12.840;2022-07-29T10:20:36;24.20;80.30
7461;DHT22;6757;52.258;12.840;2022-07-29T10:23:04;24.20;79.60
7461;DHT22;6757;52.258;12.840;2022-07-29T10:25:32;24.30;79.00
7461;DHT22;6757;52.258;12.840;2022-07-29T10:27:59;24.40;78.30
7461;DHT22;6757;52.258;12.840;2022-07-29T10:30:26;24.50;77.40
7461;DHT22;6757;52.258;12.840;2022-07-29T10:33:05;24.60;76.70
7461;DHT22;6757;52.258;12.840;2022-07-29T10:36:02;24.70;76.10
7461;DHT22;6757;52.258;12.840;2022-07-29T10:38:44;24.80;75.40
7461;DHT22;6757;52.258;12.840;2022-07-29T10:41:34;25.00;74.90
7461;DHT22;6757;52.258;12.840;2022-07-29T10:44:12;25.10;74.20
7461;DHT22;6757;52.258;12.840;2022-07-29T10:46:41;25.20;73.60
7461;DHT22;6757;52.258;12.840;2022-07-29T10:49:11;25.40;73.10
7461;DHT22;6757;52.258;12.840;2022-07-29T10:52:01;25.50;72.60
7461;DHT22;6757;52.258;12.840;2022-07-29T10:54:47;25.70;72.10
7461;DHT22;6757;52.258;12.840;2022-07-29T10:57:22;26.00;71.70
7461;DHT22;6757;52.258;12.840;2022-07-29T11:00:28;26.20;71.20
7461;DHT22;6757;52.258;12.840;2022-07-29T11:02:56;26.30;70.50
7461;DHT22;6757;52.258;12.840;2022-07-29T11:05:25;26.50;70.10
7461;DHT22;6757;52.258;12.840;2022-07-29T11:08:24;26.60;69.70
7461;DHT22;6757;52.258;12.840;2022-07-29T11:14:06;26.80;69.10
7461;DHT22;6757;52.258;12.840;2022-07-29T11:16:59;27.00;68.80
7461;DHT22;6757;52.258;12.840;2022-07-29T11:19:28;27.10;68.50
7461;DHT22;6757;52.258;12.840;2022-07-29T11:21:57;27.20;68.10
7461;DHT22;6757;52.258;12.840;2022-07-29T11:24:25;27.30;67.90
7461;DHT22;6757;52.258;12.840;2022-07-29T11:27:15;27.40;67.60
7461;DHT22;6757;52.258;12.840;2022-07-29T11:29:53;27.40;67.20
7461;DHT22;6757;52.258;12.840;2022-07-29T11:32:22;27.50;67.10
7461;DHT22;6757;52.258;12.840;2022-07-29T11:35:11;27.60;67.10
7461;DHT22;6757;52.258;12.840;2022-07-29T11:37:41;27.60;66.80
7461;DHT22;6757;52.258;12.840;2022-07-29T11:40:10;27.70;66.40
7461;DHT22;6757;52.258;12.840;2022-07-29T11:42:40;27.70;66.10
7461;DHT22;6757;52.258;12.840;2022-07-29T11:45:13;27.80;66.00
7461;DHT22;6757;52.258;12.840;2022-07-29T11:47:47;27.90;65.90
7461;DHT22;6757;52.258;12.840;2022-07-29T11:50:28;28.10;65.60
7461;DHT22;6757;52.258;12.840;2022-07-29T11:52:59;28.20;65.20
7461;DHT22;6757;52.258;12.840;2022-07-29T11:55:27;28.40;64.80
7461;DHT22;6757;52.258;12.840;2022-07-29T11:57:55;28.60;64.50
7461;DHT22;6757;52.258;12.840;2022-07-29T12:00:27;28.80;64.00
7461;DHT22;6757;52.258;12.840;2022-07-29T12:02:56;29.00;63.70
7461;DHT22;6757;52.258;12.840;2022-07-29T12:05:32;29.20;63.50
7461;DHT22;6757;52.258;12.840;2022-07-29T12:08:13;29.40;63.20
7461;DHT22;6757;52.258;12.840;2022-07-29T12:10:42;29.60;62.50
7461;DHT22;6757;52.258;12.840;2022-07-29T12:13:09;29.70;61.90
7461;DHT22;6757;52.258;12.840;2022-07-29T12:15:37;30.40;61.50
7461;DHT22;6757;52.258;12.840;2022-07-29T12:18:14;30.40;60.40
7461;DHT22;6757;52.258;12.840;2022-07-29T12:20:42;30.80;59.40
7461;DHT22;6757;52.258;12.840;2022-07-29T12:23:11;31.00;58.30
7461;DHT22;6757;52.258;12.840;2022-07-29T12:25:40;31.20;57.80
7461;DHT22;6757;52.258;12.840;2022-07-29T12:28:09;31.60;57.10
7461;DHT22;6757;52.258;12.840;2022-07-29T12:30:41;31.90;55.90
7461;DHT22;6757;52.258;12.840;2022-07-29T12:33:20;32.20;55.10
7461;DHT22;6757;52.258;12.840;2022-07-29T12:35:50;32.50;54.40
7461;DHT22;6757;52.258;12.840;2022-07-29T12:38:20;32.90;53.70
7461;DHT22;6757;52.258;12.840;2022-07-29T12:40:48;33.30;53.20
7461;DHT22;6757;52.258;12.840;2022-07-29T12:43:17;33.50;52.70
7461;DHT22;6757;52.258;12.840;2022-07-29T12:45:46;33.70;52.00
7461;DHT22;6757;52.258;12.840;2022-07-29T12:48:15;33.80;51.50
7461;DHT22;6757;52.258;12.840;2022-07-29T12:50:54;34.10;51.60
7461;DHT22;6757;52.258;12.840;2022-07-29T12:53:25;33.80;51.40
7461;DHT22;6757;52.258;12.840;2022-07-29T12:55:54;34.10;51.10
7461;DHT22;6757;52.258;12.840;2022-07-29T12:58:35;34.20;50.30
7461;DHT22;6757;52.258;12.840;2022-07-29T13:01:05;34.10;50.20
7461;DHT22;6757;52.258;12.840;2022-07-29T13:03:53;34.30;50.10
7461;DHT22;6757;52.258;12.840;2022-07-29T13:06:33;34.70;49.60
7461;DHT22;6757;52.258;12.840;2022-07-29T13:09:06;35.30;48.90
7461;DHT22;6757;52.258;12.840;2022-07-29T13:11:40;36.10;48.30
7461;DHT22;6757;52.258;12.840;2022-07-29T13:14:09;36.80;47.50
7461;DHT22;6757;52.258;12.840;2022-07-29T13:17:00;37.50;46.60
7461;DHT22;6757;52.258;12.840;2022-07-29T13:19:36;38.20;45.50
7461;DHT22;6757;52.258;12.840;2022-07-29T13:22:06;38.80;44.70
7461;DHT22;6757;52.258;12.840;2022-07-29T13:24:45;39.70;44.20
7461;DHT22;6757;52.258;12.840;2022-07-29T13:27:14;39.80;43.10
7461;DHT22;6757;52.258;12.840;2022-07-29T13:29:41;40.10;42.40
7461;DHT22;6757;52.258;12.840;2022-07-29T13:32:08;39.90;41.50
7461;DHT22;6757;52.258;12.840;2022-07-29T13:34:34;40.20;41.00
7461;DHT22;6757;52.258;12.840;2022-07-29T13:37:01;40.10;40.60
7461;DHT22;6757;52.258;12.840;2022-07-29T13:39:28;39.90;40.20
7461;DHT22;6757;52.258;12.840;2022-07-29T13:41:57;40.00;40.40
7461;DHT22;6757;52.258;12.840;2022-07-29T13:44:24;38.90;40.10
7461;DHT22;6757;52.258;12.840;2022-07-29T13:46:50;38.80;40.20
7461;DHT22;6757;52.258;12.840;2022-07-29T13:49:18;39.00;40.40
7461;DHT22;6757;52.258;12.840;2022-07-29T13:51:44;39.10;40.30
7461;DHT22;6757;52.258;12.840;2022-07-29T13:54:11;39.30;39.90
7461;DHT22;6757;52.258;12.840;2022-07-29T13:56:38;39.50;39.60
7461;DHT22;6757;52.258;12.840;2022-07-29T13:59:07;40.30;40.00
7461;DHT22;6757;52.258;12.840;2022-07-29T14:01:34;39.40;39.30
7461;DHT22;6757;52.258;12.840;2022-07-29T14:04:01;39.60;39.20
7461;DHT22;6757;52.258;12.840;2022-07-29T14:06:28;39.60;39.20
7461;DHT22;6757;52.258;12.840;2022-07-29T14:08:55;39.00;39.30
7461;DHT22;6757;52.258;12.840;2022-07-29T14:11:22;38.80;39.80
7461;DHT22;6757;52.258;12.840;2022-07-29T14:13:49;37.80;39.80
7461;DHT22;6757;52.258;12.840;2022-07-29T14:16:17;37.10;40.30
7461;DHT22;6757;52.258;12.840;2022-07-29T14:18:44;36.60;40.80
7461;DHT22;6757;52.258;12.840;2022-07-29T14:21:10;36.50;41.50
7461;DHT22;6757;52.258;12.840;2022-07-29T14:23:38;36.00;41.80
7461;DHT22;6757;52.258;12.840;2022-07-29T14:26:06;35.90;42.10
7461;DHT22;6757;52.258;12.840;2022-07-29T14:28:33;35.90;42.10
7461;DHT22;6757;52.258;12.840;2022-07-29T14:31:00;36.60;42.20
7461;DHT22;6757;52.258;12.840;2022-07-29T14:33:28;36.80;41.40
7461;DHT22;6757;52.258;12.840;2022-07-29T14:35:55;37.50;41.40
7461;DHT22;6757;52.258;12.840;2022-07-29T14:38:22;38.10;40.10
7461;DHT22;6757;52.258;12.840;2022-07-29T14:40:49;38.60;39.60
7461;DHT22;6757;52.258;12.840;2022-07-29T14:43:16;38.70;39.00
7461;DHT22;6757;52.258;12.840;2022-07-29T14:45:42;38.70;39.10
7461;DHT22;6757;52.258;12.840;2022-07-29T14:48:09;38.90;38.30
7461;DHT22;6757;52.258;12.840;2022-07-29T14:50:38;39.10;38.20
7461;DHT22;6757;52.258;12.840;2022-07-29T14:53:05;39.60;38.40
7461;DHT22;6757;52.258;12.840;2022-07-29T14:55:32;39.80;38.30
7461;DHT22;6757;52.258;12.840;2022-07-29T14:57:58;39.30;38.00
7461;DHT22;6757;52.258;12.840;2022-07-29T15:00:25;40.20;38.50
7461;DHT22;6757;52.258;12.840;2022-07-29T15:02:53;39.60;37.80
7461;DHT22;6757;52.258;12.840;2022-07-29T15:05:19;39.80;37.70
7461;DHT22;6757;52.258;12.840;2022-07-29T15:07:48;39.60;37.40
7461;DHT22;6757;52.258;12.840;2022-07-29T15:10:14;39.90;37.50
7461;DHT22;6757;52.258;12.840;2022-07-29T15:12:41;39.70;37.40
7461;DHT22;6757;52.258;12.840;2022-07-29T15:15:08;39.10;38.20
7461;DHT22;6757;52.258;12.840;2022-07-29T15:17:35;38.80;37.90
7461;DHT22;6757;52.258;12.840;2022-07-29T15:20:03;38.50;38.00
7461;DHT22;6757;52.258;12.840;2022-07-29T15:22:31;38.20;38.00
7461;DHT22;6757;52.258;12.840;2022-07-29T15:24:59;38.50;38.30
7461;DHT22;6757;52.258;12.840;2022-07-29T15:27:26;37.90;37.80
7461;DHT22;6757;52.258;12.840;2022-07-29T15:29:53;38.20;37.90
7461;DHT22;6757;52.258;12.840;2022-07-29T15:32:20;38.10;37.60
7461;DHT22;6757;52.258;12.840;2022-07-29T15:34:47;38.40;37.60
7461;DHT22;6757;52.258;12.840;2022-07-29T15:37:13;38.40;37.50
7461;DHT22;6757;52.258;12.840;2022-07-29T15:39:40;38.70;38.00
7461;DHT22;6757;52.258;12.840;2022-07-29T15:42:08;37.90;38.20
7461;DHT22;6757;52.258;12.840;2022-07-29T15:44:35;37.10;38.50
7461;DHT22;6757;52.258;12.840;2022-07-29T15:47:02;36.50;39.10
7461;DHT22;6757;52.258;12.840;2022-07-29T15:49:29;36.00;39.60
7461;DHT22;6757;52.258;12.840;2022-07-29T15:51:57;35.50;40.20
7461;DHT22;6757;52.258;12.840;2022-07-29T15:54:25;35.00;40.70
7461;DHT22;6757;52.258;12.840;2022-07-29T15:56:52;34.70;41.20
7461;DHT22;6757;52.258;12.840;2022-07-29T15:59:21;34.40;41.70
7461;DHT22;6757;52.258;12.840;2022-07-29T16:01:48;34.00;42.00
7461;DHT22;6757;52.258;12.840;2022-07-29T16:04:15;33.70;42.40